createdAt,value
2023-04-08T00:00:55.125Z,4.57
2023-04-08T00:03:21.697Z,4.28
2023-04-08T00:05:48.537Z,4.68
2023-04-08T00:08:14.938Z,4.97
2023-04-08T00:10:41.442Z,4.85
2023-04-08T00:13:07.872Z,4.32
2023-04-08T00:15:34.403Z,4.82
2023-04-08T00:18:01.079Z,5.32
2023-04-08T00:20:27.653Z,5.30
2023-04-08T00:22:54.144Z,5.10
2023-04-08T00:25:21.448Z,5.13
2023-04-08T00:27:48.707Z,5.35
2023-04-08T00:30:15.693Z,4.55
2023-04-08T00:32:42.164Z,5.20
2023-04-08T00:35:08.947Z,4.85
2023-04-08T00:37:35.426Z,5.18
2023-04-08T00:40:01.890Z,5.38
2023-04-08T00:42:31.046Z,5.20
2023-04-08T00:44:57.623Z,5.70
2023-04-08T00:47:24.217Z,6.47
2023-04-08T00:49:51.024Z,6.13
2023-04-08T00:52:17.445Z,6.68
2023-04-08T00:54:43.940Z,5.38
2023-04-08T00:57:10.524Z,5.38
2023-04-08T00:59:37.160Z,5.68
2023-04-08T01:02:14.994Z,6.03
2023-04-08T01:05:02.874Z,5.35
2023-04-08T01:07:36.938Z,4.68
2023-04-08T01:10:27.283Z,4.50
2023-04-08T01:12:59.397Z,5.07
2023-04-08T01:15:27.948Z,4.70
2023-04-08T01:17:56.539Z,4.45
2023-04-08T01:20:25.934Z,4.05
2023-04-08T01:23:16.328Z,4.28
2023-04-08T01:25:49.719Z,4.25
2023-04-08T01:28:19.134Z,5.07
2023-04-08T01:30:47.840Z,4.68
2023-04-08T01:33:16.796Z,3.75
2023-04-08T01:35:44.131Z,4.35
2023-04-08T01:38:15.597Z,7.45
2023-04-08T01:40:43.155Z,4.72
2023-04-08T01:43:13.185Z,4.55
2023-04-08T01:45:39.726Z,4.50
2023-04-08T01:48:07.348Z,4.30
2023-04-08T01:50:35.138Z,4.70
2023-04-08T01:53:04.648Z,4.70
2023-04-08T01:55:32.355Z,4.82
2023-04-08T01:58:01.340Z,5.38
2023-04-08T02:00:30.474Z,4.60
2023-04-08T02:02:58.573Z,4.82
2023-04-08T02:05:25.438Z,4.00
2023-04-08T02:07:52.067Z,4.70
2023-04-08T02:10:18.691Z,4.90
2023-04-08T02:12:46.708Z,4.32
2023-04-08T02:15:14.851Z,5.10
2023-04-08T02:17:47.389Z,4.78
2023-04-08T02:20:18.826Z,4.43
2023-04-08T02:22:56.006Z,5.15
2023-04-08T02:25:25.811Z,7.47
2023-04-08T02:27:54.561Z,4.72
2023-04-08T02:30:22.191Z,5.80
2023-04-08T02:32:49.048Z,5.57
2023-04-08T02:35:16.459Z,5.07
2023-04-08T02:37:42.906Z,4.80
2023-04-08T02:40:33.459Z,5.07
2023-04-08T02:43:00.428Z,5.15
2023-04-08T02:45:29.858Z,4.95
2023-04-08T02:47:56.499Z,5.00
2023-04-08T02:50:22.968Z,5.35
2023-04-08T02:52:49.471Z,5.40
2023-04-08T02:55:15.949Z,5.60
2023-04-08T02:57:42.763Z,5.13
2023-04-08T03:00:09.948Z,5.03
2023-04-08T03:02:36.642Z,4.82
2023-04-08T03:05:04.275Z,4.88
2023-04-08T03:07:30.945Z,5.05
2023-04-08T03:09:57.542Z,5.10
2023-04-08T03:12:24.183Z,5.70
2023-04-08T03:14:50.750Z,5.00
2023-04-08T03:17:17.244Z,4.70
2023-04-08T03:19:43.717Z,5.68
2023-04-08T03:22:10.299Z,5.03
2023-04-08T03:24:37.324Z,5.03
2023-04-08T03:27:03.988Z,5.57
2023-04-08T03:29:30.656Z,5.05
2023-04-08T03:31:57.494Z,5.60
2023-04-08T03:34:23.980Z,5.63
2023-04-08T03:36:50.747Z,4.38
2023-04-08T03:39:17.482Z,5.40
2023-04-08T03:41:43.866Z,5.45
2023-04-08T03:44:10.586Z,5.22
2023-04-08T03:46:37.016Z,5.10
2023-04-08T03:49:03.433Z,4.68
2023-04-08T03:51:29.851Z,4.70
2023-04-08T03:53:56.344Z,5.20
2023-04-08T03:56:22.849Z,5.13
2023-04-08T03:58:49.357Z,5.53
2023-04-08T04:01:16.551Z,5.15
2023-04-08T04:03:43.202Z,4.93
2023-04-08T04:06:10.146Z,5.13
2023-04-08T04:08:36.695Z,5.60
2023-04-08T04:11:03.161Z,5.80
2023-04-08T04:13:29.565Z,5.18
2023-04-08T04:15:57.520Z,5.40
2023-04-08T04:18:24.105Z,5.18
2023-04-08T04:20:50.716Z,5.40
2023-04-08T04:23:17.049Z,5.25
2023-04-08T04:25:44.232Z,5.15
2023-04-08T04:28:10.659Z,5.38
2023-04-08T04:30:41.801Z,5.53
2023-04-08T04:33:08.202Z,5.60
2023-04-08T04:35:34.717Z,5.32
2023-04-08T04:38:01.587Z,5.10
2023-04-08T04:40:28.164Z,5.70
2023-04-08T04:42:54.714Z,5.80
2023-04-08T04:45:21.257Z,5.40
2023-04-08T04:47:47.838Z,5.32
2023-04-08T04:50:14.247Z,5.32
2023-04-08T04:52:41.464Z,5.63
2023-04-08T04:55:08.343Z,6.13
2023-04-08T04:57:34.800Z,5.25
2023-04-08T05:00:03.907Z,5.68
2023-04-08T05:02:32.325Z,5.88
2023-04-08T05:04:58.983Z,5.20
2023-04-08T05:07:25.691Z,5.32
2023-04-08T05:09:52.215Z,5.70
2023-04-08T05:12:20.547Z,5.13
2023-04-08T05:14:47.236Z,5.22
2023-04-08T05:17:13.879Z,5.13
2023-04-08T05:19:40.423Z,5.85
2023-04-08T05:22:07.058Z,6.72
2023-04-08T05:24:33.415Z,5.40
2023-04-08T05:26:59.957Z,5.38
2023-04-08T05:29:26.454Z,5.65
2023-04-08T05:31:53.008Z,5.70
2023-04-08T05:34:22.965Z,6.20
2023-04-08T05:36:53.381Z,6.28
2023-04-08T05:39:20.347Z,6.75
2023-04-08T05:41:46.913Z,5.40
2023-04-08T05:44:14.131Z,5.38
2023-04-08T05:46:40.705Z,5.55
2023-04-08T05:49:07.225Z,6.10
2023-04-08T05:51:33.620Z,6.45
2023-04-08T05:54:00.218Z,6.25
2023-04-08T05:56:26.634Z,5.70
2023-04-08T05:58:53.067Z,6.10
2023-04-08T06:01:19.452Z,5.70
2023-04-08T06:03:46.032Z,5.90
2023-04-08T06:06:12.630Z,5.72
2023-04-08T06:08:39.031Z,6.47
2023-04-08T06:11:05.599Z,6.10
2023-04-08T06:13:32.508Z,7.60
2023-04-08T06:15:59.598Z,6.82
2023-04-08T06:18:26.085Z,5.95
2023-04-08T06:20:52.521Z,7.57
2023-04-08T06:23:19.215Z,7.97
2023-04-08T06:25:46.160Z,8.40
2023-04-08T06:28:12.585Z,8.18
2023-04-08T06:30:39.007Z,7.50
2023-04-08T06:33:05.582Z,7.50
2023-04-08T06:35:32.726Z,7.15
2023-04-08T06:37:59.226Z,9.73
2023-04-08T06:40:25.743Z,7.38
2023-04-08T06:42:52.233Z,7.13
2023-04-08T06:45:18.688Z,7.07
2023-04-08T06:47:45.320Z,6.70
2023-04-08T06:50:12.002Z,7.30
2023-04-08T06:52:38.730Z,7.18
2023-04-08T06:55:05.673Z,7.63
2023-04-08T06:57:32.047Z,7.20
2023-04-08T07:00:00.399Z,6.60
2023-04-08T07:02:27.055Z,6.75
2023-04-08T07:04:53.663Z,6.93
2023-04-08T07:07:20.193Z,6.43
2023-04-08T07:09:46.825Z,6.40
2023-04-08T07:12:13.438Z,6.75
2023-04-08T07:14:39.818Z,6.03
2023-04-08T07:17:06.748Z,6.20
2023-04-08T07:19:33.630Z,6.72
2023-04-08T07:22:00.573Z,6.10
2023-04-08T07:24:27.069Z,6.40
2023-04-08T07:26:55.591Z,6.00
2023-04-08T07:29:22.115Z,6.32
2023-04-08T07:31:48.518Z,6.38
2023-04-08T07:34:14.967Z,6.47
2023-04-08T07:36:41.396Z,6.43
2023-04-08T07:39:07.849Z,6.15
2023-04-08T07:41:34.285Z,5.75
2023-04-08T07:44:00.853Z,6.40
2023-04-08T07:46:27.409Z,6.18
2023-04-08T07:48:53.808Z,5.70
2023-04-08T07:51:20.883Z,7.30
2023-04-08T07:53:47.742Z,8.10
2023-04-08T07:56:16.075Z,7.47
2023-04-08T07:58:42.820Z,7.35
2023-04-08T08:01:21.134Z,7.72
2023-04-08T08:03:49.057Z,6.13
2023-04-08T08:06:16.347Z,10.77
2023-04-08T08:08:43.200Z,11.10
2023-04-08T08:11:09.643Z,6.90
2023-04-08T08:13:36.060Z,13.30
2023-04-08T08:16:02.578Z,10.70
2023-04-08T08:18:29.047Z,9.10
2023-04-08T08:20:55.421Z,6.55
2023-04-08T08:23:21.998Z,7.60
2023-04-08T08:25:48.507Z,12.07
2023-04-08T08:28:14.864Z,12.38
2023-04-08T08:30:41.386Z,10.02
2023-04-08T08:33:08.045Z,7.90
2023-04-08T08:35:34.567Z,7.40
2023-04-08T08:38:01.175Z,7.53
2023-04-08T08:40:27.791Z,6.13
2023-04-08T08:42:54.217Z,7.18
2023-04-08T08:45:21.171Z,7.38
2023-04-08T08:47:50.347Z,6.55
2023-04-08T08:50:17.860Z,6.50
2023-04-08T08:52:51.533Z,6.45
2023-04-08T08:55:36.253Z,5.20
2023-04-08T08:58:10.205Z,6.30
2023-04-08T09:00:38.693Z,6.88
2023-04-08T09:03:21.810Z,5.60
2023-04-08T09:05:49.511Z,6.85
2023-04-08T09:08:33.640Z,6.53
2023-04-08T09:11:18.154Z,11.65
2023-04-08T09:13:46.260Z,11.88
2023-04-08T09:16:16.603Z,5.68
2023-04-08T09:18:45.806Z,4.95
2023-04-08T09:21:13.619Z,5.50
2023-04-08T09:23:51.527Z,8.07
2023-04-08T09:26:22.100Z,6.40
2023-04-08T09:29:24.092Z,6.88
2023-04-08T09:31:56.558Z,5.55
2023-04-08T09:34:24.366Z,5.85
2023-04-08T09:36:52.261Z,5.80
2023-04-08T09:39:18.992Z,6.07
2023-04-08T09:41:48.832Z,6.05
2023-04-08T09:44:19.361Z,6.10
2023-04-08T09:46:52.805Z,7.45
2023-04-08T09:49:44.664Z,5.50
2023-04-08T09:52:21.052Z,6.03
2023-04-08T09:55:01.713Z,6.25
2023-04-08T09:57:37.041Z,5.97
2023-04-08T10:00:16.786Z,6.22
2023-04-08T10:02:54.749Z,6.63
2023-04-08T10:05:24.551Z,5.82
2023-04-08T10:07:51.328Z,6.93
2023-04-08T10:10:18.940Z,6.20
2023-04-08T10:12:45.679Z,5.95
2023-04-08T10:15:29.456Z,6.68
2023-04-08T10:18:20.194Z,5.88
2023-04-08T10:20:47.854Z,5.65
2023-04-08T10:23:16.625Z,7.72
2023-04-08T10:25:45.189Z,10.63
2023-04-08T10:28:11.840Z,9.23
2023-04-08T10:30:38.234Z,15.55
2023-04-08T10:33:15.093Z,10.02
2023-04-08T10:35:55.602Z,7.80
2023-04-08T10:38:22.453Z,6.72
2023-04-08T10:40:49.583Z,5.90
2023-04-08T10:43:16.218Z,5.55
2023-04-08T10:45:45.763Z,6.50
2023-04-08T10:48:13.588Z,4.97
2023-04-08T10:50:40.968Z,5.60
2023-04-08T10:53:08.503Z,4.80
2023-04-08T10:55:35.157Z,4.70
2023-04-08T10:58:09.493Z,5.55
2023-04-08T11:00:40.352Z,5.03
2023-04-08T11:03:08.907Z,5.13
2023-04-08T11:05:39.065Z,5.30
2023-04-08T11:08:06.269Z,6.20
2023-04-08T11:10:38.817Z,5.75
2023-04-08T11:13:09.987Z,5.38
2023-04-08T11:18:05.430Z,5.03
2023-04-08T11:20:36.107Z,5.25
2023-04-08T11:23:03.491Z,4.80
2023-04-08T11:25:30.301Z,4.80
2023-04-08T11:27:57.014Z,4.63
2023-04-08T11:30:24.112Z,5.53
2023-04-08T11:32:52.187Z,4.25
2023-04-08T11:35:18.799Z,4.70
2023-04-08T11:37:47.599Z,4.65
2023-04-08T11:40:21.356Z,10.25
2023-04-08T11:42:48.610Z,5.68
2023-04-08T11:45:16.549Z,5.25
2023-04-08T11:47:44.444Z,5.20
2023-04-08T11:50:11.358Z,6.55
2023-04-08T11:52:51.443Z,6.13
2023-04-08T11:55:29.480Z,6.50
2023-04-08T11:57:57.305Z,5.00
2023-04-08T12:00:24.250Z,6.57
2023-04-08T12:02:51.417Z,5.13
2023-04-08T12:05:18.008Z,5.78
2023-04-08T12:07:44.999Z,6.65
2023-04-08T12:10:12.101Z,6.70
2023-04-08T12:12:39.278Z,6.30
2023-04-08T12:15:08.271Z,6.22
2023-04-08T12:17:36.003Z,5.32
2023-04-08T12:20:02.545Z,4.57
2023-04-08T12:22:28.910Z,6.32
2023-04-08T12:24:57.110Z,5.28
2023-04-08T12:27:24.612Z,8.90
2023-04-08T12:29:51.909Z,8.48
2023-04-08T12:32:18.295Z,5.00
2023-04-08T12:34:44.799Z,3.78
2023-04-08T12:37:11.450Z,3.35
2023-04-08T12:39:38.294Z,5.47
2023-04-08T12:42:04.890Z,5.07
2023-04-08T12:44:31.361Z,3.75
2023-04-08T12:47:00.837Z,3.53
2023-04-08T12:49:28.070Z,4.20
2023-04-08T12:51:54.979Z,3.72
2023-04-08T12:54:21.875Z,3.80
2023-04-08T12:56:48.813Z,3.78
2023-04-08T12:59:15.761Z,3.42
2023-04-08T13:01:42.752Z,3.72
2023-04-08T13:04:09.301Z,3.80
2023-04-08T13:06:35.806Z,3.72
2023-04-08T13:09:02.226Z,3.83
2023-04-08T13:11:28.744Z,3.85
2023-04-08T13:13:55.402Z,3.67
2023-04-08T13:16:22.062Z,3.38
2023-04-08T13:18:48.774Z,3.30
2023-04-08T13:21:15.442Z,3.30
2023-04-08T13:23:42.324Z,3.20
2023-04-08T13:26:08.888Z,3.72
2023-04-08T13:28:40.802Z,3.22
2023-04-08T13:31:16.574Z,3.90
2023-04-08T13:33:42.971Z,3.35
2023-04-08T13:36:09.313Z,3.45
2023-04-08T13:38:36.480Z,3.17
2023-04-08T13:41:02.889Z,3.55
2023-04-08T13:43:29.430Z,3.40
2023-04-08T13:45:57.020Z,3.53
2023-04-08T13:48:23.449Z,3.78
2023-04-08T13:50:50.255Z,4.00
2023-04-08T13:53:17.945Z,3.83
2023-04-08T13:55:44.660Z,3.58
2023-04-08T13:58:21.232Z,3.42
2023-04-08T14:00:51.710Z,4.40
2023-04-08T14:03:18.923Z,3.50
2023-04-08T14:05:45.948Z,3.70
2023-04-08T14:08:13.644Z,4.07
2023-04-08T14:10:42.229Z,4.22
2023-04-08T14:13:09.121Z,4.50
2023-04-08T14:15:36.112Z,3.90
2023-04-08T14:18:03.250Z,4.05
2023-04-08T14:20:30.338Z,3.10
2023-04-08T14:22:57.256Z,3.15
2023-04-08T14:25:24.403Z,2.78
2023-04-08T14:27:57.962Z,3.03
2023-04-08T14:30:26.625Z,3.08
2023-04-08T14:32:53.379Z,3.05
2023-04-08T14:35:20.173Z,2.78
2023-04-08T14:37:53.980Z,2.92
2023-04-08T14:40:20.720Z,3.03
2023-04-08T14:42:49.693Z,3.08
2023-04-08T14:45:16.601Z,3.30
2023-04-08T14:47:43.130Z,3.42
2023-04-08T14:50:09.917Z,2.97
2023-04-08T14:52:36.487Z,4.22
2023-04-08T14:55:03.019Z,4.18
2023-04-08T14:57:29.505Z,3.25
2023-04-08T14:59:55.916Z,3.53
2023-04-08T15:02:22.472Z,3.05
2023-04-08T15:04:48.993Z,3.10
2023-04-08T15:07:15.737Z,2.97
2023-04-08T15:09:42.589Z,3.35
2023-04-08T15:12:09.096Z,2.83
2023-04-08T15:14:35.572Z,2.47
2023-04-08T15:17:02.028Z,3.33
2023-04-08T15:19:28.438Z,3.03
2023-04-08T15:21:55.013Z,2.80
2023-04-08T15:24:21.584Z,2.42
2023-04-08T15:29:14.712Z,2.80
2023-04-08T15:31:41.459Z,3.30
2023-04-08T15:34:08.000Z,3.63
2023-04-08T15:36:37.228Z,3.47
2023-04-08T15:39:04.369Z,3.40
2023-04-08T15:41:32.259Z,3.30
2023-04-08T15:43:58.678Z,3.40
2023-04-08T15:46:25.164Z,3.10
2023-04-08T15:48:51.797Z,3.10
2023-04-08T15:51:19.531Z,3.75
2023-04-08T15:53:46.080Z,3.63
2023-04-08T15:56:16.674Z,3.63
2023-04-08T15:58:43.764Z,3.83
2023-04-08T16:01:10.617Z,3.53
2023-04-08T16:03:37.677Z,3.70
2023-04-08T16:06:05.670Z,3.67
2023-04-08T16:08:34.676Z,4.03
2023-04-08T16:11:02.948Z,4.05
2023-04-08T16:13:32.633Z,3.60
2023-04-08T16:16:01.743Z,3.65
2023-04-08T16:18:28.544Z,3.75
2023-04-08T16:20:55.743Z,4.00
2023-04-08T16:23:22.739Z,3.45
2023-04-08T16:25:49.208Z,4.00
2023-04-08T16:28:16.289Z,3.65
2023-04-08T16:30:43.980Z,3.65
2023-04-08T16:33:13.790Z,3.38
2023-04-08T16:35:40.316Z,4.00
2023-04-08T16:38:06.854Z,3.75
2023-04-08T16:40:34.507Z,4.00
2023-04-08T16:43:01.864Z,4.15
2023-04-08T16:45:29.391Z,4.07
2023-04-08T16:47:56.293Z,4.45
2023-04-08T16:50:22.869Z,4.38
2023-04-08T16:52:49.767Z,4.63
2023-04-08T16:55:17.119Z,4.40
2023-04-08T16:57:43.671Z,4.63
2023-04-08T17:00:10.931Z,4.45
2023-04-08T17:02:37.639Z,4.90
2023-04-08T17:05:04.519Z,4.10
2023-04-08T17:07:31.156Z,4.85
2023-04-08T17:09:57.774Z,4.70
2023-04-08T17:12:24.245Z,4.57
2023-04-08T17:14:51.039Z,5.22
2023-04-08T17:17:17.495Z,4.63
2023-04-08T17:19:44.190Z,5.05
2023-04-08T17:22:10.600Z,4.47
2023-04-08T17:24:37.010Z,4.28
2023-04-08T17:27:03.636Z,3.95
2023-04-08T17:29:30.065Z,4.60
2023-04-08T17:31:56.634Z,4.65
2023-04-08T17:34:24.579Z,4.25
2023-04-08T17:36:51.449Z,3.92
2023-04-08T17:39:18.399Z,4.97
2023-04-08T17:41:45.956Z,4.50
2023-04-08T17:44:12.640Z,4.85
2023-04-08T17:46:39.255Z,4.53
2023-04-08T17:49:05.686Z,4.65
2023-04-08T17:51:32.933Z,4.85
2023-04-08T17:53:59.546Z,5.10
2023-04-08T17:56:27.690Z,4.25
2023-04-08T17:58:54.097Z,4.38
2023-04-08T18:01:22.280Z,4.05
2023-04-08T18:03:51.013Z,4.13
2023-04-08T18:06:18.026Z,3.88
2023-04-08T18:08:45.269Z,3.65
2023-04-08T18:11:11.884Z,4.22
2023-04-08T18:13:38.258Z,3.42
2023-04-08T18:16:05.106Z,4.28
2023-04-08T18:18:31.760Z,4.03
2023-04-08T18:20:58.269Z,3.70
2023-04-08T18:23:24.656Z,3.80
2023-04-08T18:25:51.080Z,3.88
2023-04-08T18:28:17.546Z,3.95
2023-04-08T18:30:43.967Z,4.10
2023-04-08T18:33:10.374Z,4.32
2023-04-08T18:35:37.075Z,4.68
2023-04-08T18:38:03.501Z,4.15
2023-04-08T18:40:31.132Z,5.50
2023-04-08T18:43:01.887Z,4.97
2023-04-08T18:45:29.173Z,7.13
2023-04-08T18:47:55.874Z,5.72
2023-04-08T18:50:22.774Z,7.85
2023-04-08T18:52:49.771Z,5.70
2023-04-08T18:55:16.269Z,7.68
2023-04-08T18:57:42.728Z,8.60
2023-04-08T19:00:09.674Z,6.82
2023-04-08T19:02:36.211Z,4.40
2023-04-08T19:05:02.753Z,4.80
2023-04-08T19:07:29.170Z,4.68
2023-04-08T19:09:57.440Z,4.70
2023-04-08T19:12:23.999Z,4.13
2023-04-08T19:14:50.786Z,4.68
2023-04-08T19:17:17.244Z,4.10
2023-04-08T19:19:43.725Z,4.32
2023-04-08T19:22:10.417Z,4.57
2023-04-08T19:24:37.518Z,4.85
2023-04-08T19:27:04.144Z,3.80
2023-04-08T19:29:32.828Z,4.25
2023-04-08T19:31:59.621Z,3.80
2023-04-08T19:34:29.906Z,4.10
2023-04-08T19:36:56.258Z,4.05
2023-04-08T19:39:25.239Z,4.50
2023-04-08T19:41:53.232Z,4.40
2023-04-08T19:44:19.663Z,4.38
2023-04-08T19:46:46.291Z,4.45
2023-04-08T19:49:12.846Z,4.60
2023-04-08T19:51:39.456Z,4.60
2023-04-08T19:54:05.840Z,5.90
2023-04-08T19:56:33.948Z,5.88
2023-04-08T19:59:03.630Z,5.78
2023-04-08T20:01:30.650Z,6.10
2023-04-08T20:03:57.256Z,6.22
2023-04-08T20:06:23.825Z,7.07
2023-04-08T20:08:53.213Z,5.53
2023-04-08T20:11:20.852Z,4.22
2023-04-08T20:13:49.078Z,5.75
2023-04-08T20:16:15.719Z,6.93
2023-04-08T20:18:43.388Z,6.38
2023-04-08T20:21:13.654Z,12.85
2023-04-08T20:23:44.106Z,6.03
2023-04-08T20:26:12.424Z,5.45
2023-04-08T20:28:39.819Z,5.43
2023-04-08T20:31:07.526Z,4.90
2023-04-08T20:33:37.614Z,4.88
2023-04-08T20:36:04.958Z,5.50
2023-04-08T20:38:35.160Z,4.72
2023-04-08T20:41:02.055Z,5.40
2023-04-08T20:43:28.916Z,5.05
2023-04-08T20:45:55.374Z,4.88
2023-04-08T20:48:21.860Z,5.45
2023-04-08T20:50:48.841Z,5.75
2023-04-08T20:53:17.008Z,6.38
2023-04-08T20:55:43.544Z,10.20
2023-04-08T20:58:10.093Z,8.52
2023-04-08T21:00:36.619Z,6.28
2023-04-08T21:03:03.106Z,9.07
2023-04-08T21:05:31.256Z,5.80
2023-04-08T21:07:57.743Z,6.90
2023-04-08T21:10:24.339Z,4.65
2023-04-08T21:12:50.853Z,5.53
2023-04-08T21:15:17.527Z,5.28
2023-04-08T21:17:44.073Z,5.22
2023-04-08T21:20:11.358Z,4.50
2023-04-08T21:22:38.335Z,5.45
2023-04-08T21:25:05.513Z,5.93
2023-04-08T21:27:32.202Z,5.80
2023-04-08T21:29:58.683Z,5.20
2023-04-08T21:32:25.182Z,4.80
2023-04-08T21:34:54.609Z,5.57
2023-04-08T21:37:22.626Z,6.28
2023-04-08T21:39:49.975Z,7.15
2023-04-08T21:42:16.449Z,7.50
2023-04-08T21:44:42.923Z,7.25
2023-04-08T21:47:09.423Z,7.35
2023-04-08T21:49:36.356Z,6.10
2023-04-08T21:52:03.626Z,5.70
2023-04-08T21:54:30.062Z,5.63
2023-04-08T21:56:56.872Z,5.53
2023-04-08T21:59:23.430Z,4.90
2023-04-08T22:01:50.021Z,4.90
2023-04-08T22:04:16.969Z,6.47
2023-04-08T22:06:43.370Z,17.17
2023-04-08T22:09:09.839Z,6.07
2023-04-08T22:11:36.284Z,5.15
2023-04-08T22:14:02.654Z,5.80
2023-04-08T22:16:29.276Z,6.13
2023-04-08T22:18:56.206Z,5.50
2023-04-08T22:21:23.563Z,6.50
2023-04-08T22:23:50.112Z,5.93
2023-04-08T22:26:16.545Z,5.85
2023-04-08T22:28:43.246Z,5.05
2023-04-08T22:31:11.763Z,6.10
2023-04-08T22:33:39.237Z,5.03
2023-04-08T22:36:06.093Z,5.90
2023-04-08T22:38:32.832Z,5.82
2023-04-08T22:40:59.256Z,5.88
2023-04-08T22:43:25.624Z,6.07
2023-04-08T22:45:52.282Z,6.18
2023-04-08T22:48:18.790Z,6.18
2023-04-08T22:50:45.258Z,6.07
2023-04-08T22:53:12.809Z,6.05
2023-04-08T22:55:39.265Z,6.20
2023-04-08T22:58:05.913Z,5.97
2023-04-08T23:00:32.346Z,6.32
2023-04-08T23:02:59.001Z,6.07
2023-04-08T23:05:26.021Z,6.05
2023-04-08T23:07:52.427Z,6.45
2023-04-08T23:10:18.921Z,5.70
2023-04-08T23:12:45.676Z,6.63
2023-04-08T23:15:12.077Z,5.93
2023-04-08T23:17:38.462Z,7.45
2023-04-08T23:20:05.543Z,6.00
2023-04-08T23:22:32.035Z,5.97
2023-04-08T23:24:58.444Z,6.38
2023-04-08T23:27:24.840Z,6.43
2023-04-08T23:29:51.351Z,6.15
2023-04-08T23:32:17.843Z,6.85
2023-04-08T23:34:44.262Z,6.22
2023-04-08T23:37:10.855Z,6.13
2023-04-08T23:39:37.317Z,6.20
2023-04-08T23:42:03.812Z,6.13
2023-04-08T23:44:30.237Z,6.22
2023-04-08T23:46:56.902Z,6.90
2023-04-08T23:49:23.409Z,6.15
2023-04-08T23:51:49.822Z,5.55
2023-04-08T23:54:16.333Z,5.35
2023-04-08T23:56:42.750Z,6.00
2023-04-08T23:59:09.142Z,5.90
